Time;durP1;ratioP1;P1;durP2;ratioP2;P2;SDS_P1;SDS_P2;PMS_P1;PMS_P2;Temp;Humidity;BMP_temperature;BMP_pressure;BME280_temperature;BME280_humidity;BME280_pressure;Samples;Min_cycle;Max_cycle;Signal;HPM_P1;HPM_P2
2022/06/15 00:02:00;;;;;;;10.23;9.43;;;12.20;99.90;;;;;;4972589;28;20260;-54
2022/06/15 00:04:26;;;;;;;10.67;9.77;;;12.20;99.90;;;;;;4962896;28;20189;-52
2022/06/15 00:06:52;;;;;;;11.23;10.13;;;12.10;99.90;;;;;;4972914;28;20914;-51
2022/06/15 00:09:18;;;;;;;10.60;9.60;;;12.10;99.90;;;;;;4973745;28;20475;-54
2022/06/15 00:11:44;;;;;;;10.00;9.20;;;12.10;99.90;;;;;;4972861;28;20416;-54
2022/06/15 00:14:18;;;;;;;10.57;9.67;;;12.00;99.90;;;;;;4970723;28;21827;-50
2022/06/15 00:16:44;;;;;;;10.70;9.80;;;12.00;99.90;;;;;;4964855;28;20235;-51
2022/06/15 00:19:10;;;;;;;11.40;10.40;;;11.90;99.90;;;;;;4968701;28;20499;-51
2022/06/15 00:21:36;;;;;;;11.43;10.43;;;11.90;99.90;;;;;;4972821;28;20449;-52
2022/06/15 00:24:02;;;;;;;11.60;10.63;;;11.90;99.90;;;;;;4971056;28;20440;-47
2022/06/15 00:26:28;;;;;;;11.10;10.20;;;11.80;99.90;;;;;;4973675;28;20181;-48
2022/06/15 00:28:54;;;;;;;10.20;9.30;;;11.80;99.90;;;;;;4967291;28;20472;-50
2022/06/15 00:31:20;;;;;;;10.60;9.70;;;11.80;99.90;;;;;;4968135;28;20436;-50
2022/06/15 00:33:46;;;;;;;11.43;10.33;;;11.70;99.90;;;;;;4972727;28;20800;-51
2022/06/15 00:36:15;;;;;;;10.67;9.47;;;11.70;99.90;;;;;;4975404;28;20494;-51
2022/06/15 00:38:59;;;;;;;11.23;10.03;;;11.60;99.90;;;;;;4972074;28;20467;-48
2022/06/15 00:41:31;;;;;;;11.17;10.17;;;11.60;99.90;;;;;;4996169;28;20450;-51
2022/06/15 00:44:00;;;;;;;11.10;10.00;;;11.60;99.90;;;;;;4968854;28;20443;-52
2022/06/15 00:46:34;;;;;;;11.43;10.43;;;11.60;99.90;;;;;;4970086;28;20447;-52
2022/06/15 00:49:21;;;;;;;11.50;10.10;;;11.60;99.90;;;;;;4980808;28;20464;-48
2022/06/15 00:51:51;;;;;;;11.40;10.33;;;11.50;99.90;;;;;;4966476;28;20484;-49
2022/06/15 00:54:17;;;;;;;11.83;10.83;;;11.40;99.90;;;;;;4971474;28;20420;-53
2022/06/15 00:56:43;;;;;;;11.53;10.53;;;11.40;99.90;;;;;;4965870;28;20662;-49
2022/06/15 00:59:19;;;;;;;12.10;11.10;;;11.40;99.90;;;;;;4971351;28;20423;-49
2022/06/15 01:01:45;;;;;;;12.40;11.10;;;11.30;99.90;;;;;;4970053;28;20432;-50
2022/06/15 01:04:11;;;;;;;11.57;10.63;;;11.20;99.90;;;;;;4967294;28;20444;-49
2022/06/15 01:07:15;;;;;;;12.27;11.30;;;11.20;99.90;;;;;;4961164;28;20977;-51
2022/06/15 01:09:58;;;;;;;11.47;10.47;;;11.10;99.90;;;;;;4987304;28;20446;-51
2022/06/15 01:13:03;;;;;;;12.00;11.00;;;11.10;99.90;;;;;;4968494;28;20546;-49
2022/06/15 01:15:49;;;;;;;12.43;11.23;;;11.10;99.90;;;;;;4954109;28;20444;-49
2022/06/15 01:18:37;;;;;;;12.23;11.20;;;11.00;99.90;;;;;;4971805;28;20436;-48
2022/06/15 01:21:06;;;;;;;12.20;11.20;;;11.00;99.90;;;;;;4964356;28;20460;-48
2022/06/15 01:23:50;;;;;;;12.30;11.30;;;11.00;99.90;;;;;;4971017;28;20424;-49
2022/06/15 01:26:37;;;;;;;11.77;10.67;;;11.00;99.90;;;;;;4965411;28;20433;-52
2022/06/15 01:29:34;;;;;;;11.63;10.63;;;10.90;99.90;;;;;;4970847;28;20480;-47
2022/06/15 01:32:30;;;;;;;12.03;11.03;;;10.90;99.90;;;;;;4968802;28;20440;-49
2022/06/15 01:35:13;;;;;;;11.67;10.67;;;10.90;99.90;;;;;;4988191;28;20423;-53
2022/06/15 01:38:20;;;;;;;12.17;11.17;;;10.80;99.90;;;;;;4972613;28;20531;-50
2022/06/15 01:40:51;;;;;;;12.43;11.33;;;10.80;99.90;;;;;;4962750;28;20434;-50
2022/06/15 01:43:21;;;;;;;12.57;11.40;;;10.80;99.90;;;;;;4957820;28;20432;-50
2022/06/15 01:45:48;;;;;;;11.37;10.37;;;10.80;99.90;;;;;;4968924;28;20459;-47
2022/06/15 01:48:14;;;;;;;11.90;10.90;;;10.80;99.90;;;;;;4969899;28;20474;-51
2022/06/15 01:50:53;;;;;;;11.27;10.37;;;10.80;99.90;;;;;;5000717;28;20507;-52
2022/06/15 01:53:30;;;;;;;11.07;10.17;;;10.70;99.90;;;;;;4959184;28;20430;-47
2022/06/15 01:56:06;;;;;;;10.03;9.13;;;10.70;99.90;;;;;;4968960;28;20435;-50
2022/06/15 01:58:35;;;;;;;12.33;10.80;;;10.70;99.90;;;;;;4981025;28;20977;-52
2022/06/15 02:01:20;;;;;;;11.50;10.50;;;10.70;99.90;;;;;;4969055;28;20444;-47
2022/06/15 02:04:09;;;;;;;11.50;10.50;;;10.70;99.90;;;;;;4951517;28;20461;-48
2022/06/15 02:06:36;;;;;;;10.10;9.30;;;10.60;99.90;;;;;;4960963;28;20805;-51
2022/06/15 02:09:22;;;;;;;12.63;11.40;;;10.60;99.90;;;;;;4970522;28;20503;-51
2022/06/15 02:11:48;;;;;;;11.40;10.30;;;10.60;99.90;;;;;;4959830;28;20473;-47
2022/06/15 02:14:27;;;;;;;11.40;10.40;;;10.50;99.90;;;;;;4988843;28;20918;-51
2022/06/15 02:17:01;;;;;;;12.10;10.90;;;10.50;99.90;;;;;;4979693;28;20815;-50
2022/06/15 02:19:33;;;;;;;11.53;10.43;;;10.50;99.90;;;;;;4968507;28;20962;-48
2022/06/15 02:22:07;;;;;;;14.63;11.80;;;10.40;99.90;;;;;;4969181;28;21073;-51
2022/06/15 02:24:34;;;;;;;12.10;10.90;;;10.40;99.90;;;;;;4974025;28;20403;-50
2022/06/15 02:27:04;;;;;;;11.90;11.00;;;10.30;99.90;;;;;;4971698;28;20448;-52
2022/06/15 02:29:34;;;;;;;12.47;11.17;;;10.30;99.90;;;;;;4960081;28;20518;-51
2022/06/15 02:32:00;;;;;;;11.73;10.73;;;10.20;99.90;;;;;;4966303;28;20428;-52
2022/06/15 02:34:27;;;;;;;11.60;10.63;;;10.20;99.90;;;;;;4961725;28;20487;-50
2022/06/15 02:36:54;;;;;;;12.20;11.10;;;10.20;99.90;;;;;;4962735;28;20432;-54
2022/06/15 02:39:20;;;;;;;12.30;11.20;;;10.20;99.90;;;;;;4968689;28;20443;-57
2022/06/15 02:41:45;;;;;;;13.73;11.67;;;10.10;99.90;;;;;;4966996;28;20547;-55
2022/06/15 02:44:14;;;;;;;12.80;11.50;;;10.10;99.90;;;;;;4973218;28;20431;-54
2022/06/15 02:46:47;;;;;;;12.57;11.27;;;10.10;99.90;;;;;;4972131;28;20208;-53
2022/06/15 02:49:14;;;;;;;14.00;11.33;;;10.10;99.90;;;;;;4960905;28;20500;-55
2022/06/15 02:51:55;;;;;;;12.63;10.90;;;10.10;99.90;;;;;;4972713;28;20442;-53
2022/06/15 02:54:31;;;;;;;10.97;10.00;;;10.10;99.90;;;;;;4963128;28;20547;-57
2022/06/15 02:56:57;;;;;;;10.97;9.87;;;10.00;99.90;;;;;;4968544;28;20597;-55
2022/06/15 02:59:23;;;;;;;12.67;11.37;;;10.00;99.90;;;;;;4967905;28;20533;-54
2022/06/15 03:01:48;;;;;;;10.73;9.77;;;10.00;99.90;;;;;;4962920;28;20251;-55
2022/06/15 03:04:14;;;;;;;12.07;10.97;;;10.00;99.90;;;;;;4972747;28;20189;-55
2022/06/15 03:06:40;;;;;;;11.47;10.47;;;10.00;99.90;;;;;;4971429;28;20260;-53
2022/06/15 03:09:05;;;;;;;11.30;10.10;;;10.00;99.90;;;;;;4982097;28;20212;-53
2022/06/15 03:11:31;;;;;;;11.63;10.53;;;9.90;99.90;;;;;;4971775;28;20195;-55
2022/06/15 03:13:56;;;;;;;11.13;10.23;;;10.00;99.90;;;;;;4970920;28;20177;-56
2022/06/15 03:16:22;;;;;;;11.73;10.47;;;10.00;99.90;;;;;;4972008;28;20181;-57
2022/06/15 03:18:48;;;;;;;11.70;10.70;;;10.00;99.90;;;;;;4966594;28;20181;-53
2022/06/15 03:21:15;;;;;;;11.30;10.40;;;10.00;99.90;;;;;;4957630;28;20460;-56
2022/06/15 03:23:40;;;;;;;11.07;10.13;;;10.00;99.90;;;;;;4971722;28;20443;-54
2022/06/15 03:26:06;;;;;;;11.73;10.57;;;10.00;99.90;;;;;;4972810;28;20907;-54
2022/06/15 03:28:34;;;;;;;10.83;9.93;;;10.00;99.90;;;;;;4966046;28;20209;-56
2022/06/15 03:31:00;;;;;;;10.87;9.77;;;10.00;99.90;;;;;;4972548;28;20177;-56
2022/06/15 03:33:26;;;;;;;11.10;9.90;;;10.00;99.90;;;;;;4971067;28;20413;-58
2022/06/15 03:35:51;;;;;;;10.83;9.83;;;10.00;99.90;;;;;;4960948;28;20444;-57
2022/06/15 03:38:17;;;;;;;9.97;9.07;;;10.00;99.90;;;;;;4974139;28;20448;-56
2022/06/15 03:40:46;;;;;;;9.80;8.90;;;10.00;99.90;;;;;;4980649;28;20187;-55
2022/06/15 03:43:12;;;;;;;10.37;9.47;;;10.00;99.90;;;;;;4970800;28;20199;-53
2022/06/15 03:45:38;;;;;;;10.30;9.40;;;10.00;99.90;;;;;;4971797;28;20527;-57
2022/06/15 03:48:04;;;;;;;12.60;9.63;;;10.10;99.90;;;;;;4969923;28;21035;-56
2022/06/15 03:50:32;;;;;;;10.17;9.10;;;10.10;99.90;;;;;;4971817;28;20519;-56
2022/06/15 03:52:59;;;;;;;10.77;9.77;;;10.10;99.90;;;;;;4970484;28;20784;-57
2022/06/15 03:55:25;;;;;;;11.40;10.20;;;10.20;99.90;;;;;;4960116;28;20428;-54
2022/06/15 03:57:51;;;;;;;10.47;9.57;;;10.10;99.90;;;;;;4970968;28;20804;-57
2022/06/15 04:00:20;;;;;;;11.13;10.13;;;10.10;99.90;;;;;;4968554;28;20448;-56
2022/06/15 04:02:46;;;;;;;11.63;10.63;;;10.00;99.90;;;;;;4967709;28;20678;-57
2022/06/15 04:05:31;;;;;;;13.07;11.77;;;10.10;99.90;;;;;;4977523;28;20477;-56
2022/06/15 04:10:41;;;;;;;12.43;10.60;;;10.20;99.90;;;;;;4969156;28;21346;-56
2022/06/15 04:13:07;;;;;;;10.50;9.60;;;10.20;99.90;;;;;;4961811;28;20548;-55
2022/06/15 04:15:33;;;;;;;11.20;10.20;;;10.30;99.90;;;;;;4978243;28;20468;-54
2022/06/15 04:17:58;;;;;;;11.70;10.70;;;10.30;99.90;;;;;;4971839;28;20188;-54
2022/06/15 04:20:32;;;;;;;10.70;9.70;;;10.40;99.90;;;;;;4971041;28;20499;-52
2022/06/15 04:22:58;;;;;;;11.37;10.40;;;10.40;99.90;;;;;;4966518;28;20182;-54
2022/06/15 04:25:24;;;;;;;10.70;9.80;;;10.40;99.90;;;;;;4970740;28;20443;-58
2022/06/15 04:27:49;;;;;;;11.00;9.90;;;10.40;99.90;;;;;;4969032;28;20577;-56
2022/06/15 04:30:15;;;;;;;10.43;9.43;;;10.40;99.90;;;;;;4981078;28;20617;-54
2022/06/15 04:32:41;;;;;;;10.40;8.83;;;10.50;99.90;;;;;;4975704;28;20557;-56
2022/06/15 04:35:07;;;;;;;11.97;9.93;;;10.50;99.90;;;;;;4968036;28;20216;-55
2022/06/15 04:37:32;;;;;;;10.43;9.43;;;10.60;99.90;;;;;;4966061;28;20185;-51
2022/06/15 04:39:58;;;;;;;11.63;9.50;;;10.70;99.90;;;;;;4966646;28;20527;-56
2022/06/15 04:42:23;;;;;;;10.87;9.80;;;10.80;99.90;;;;;;4968653;28;20215;-56
2022/06/15 04:44:49;;;;;;;10.07;9.17;;;10.90;99.90;;;;;;4967497;28;20550;-56
2022/06/15 04:47:15;;;;;;;11.30;9.27;;;10.90;99.90;;;;;;4968730;28;20182;-56
2022/06/15 04:49:40;;;;;;;9.47;8.50;;;11.00;99.90;;;;;;4967716;28;20235;-54
2022/06/15 04:52:06;;;;;;;10.60;9.47;;;11.00;99.90;;;;;;4971371;28;20181;-54
2022/06/15 04:54:32;;;;;;;9.83;8.90;;;11.10;99.90;;;;;;4964050;28;20200;-55
2022/06/15 04:56:57;;;;;;;10.37;9.27;;;11.10;99.90;;;;;;4971053;28;20360;-55
2022/06/15 04:59:23;;;;;;;8.73;8.03;;;11.30;99.90;;;;;;4961335;28;20942;-53
2022/06/15 05:01:48;;;;;;;9.53;8.47;;;11.30;99.90;;;;;;4966931;28;21019;-53
2022/06/15 05:04:14;;;;;;;11.47;8.93;;;11.40;99.90;;;;;;4968952;28;20212;-56
2022/06/15 05:06:41;;;;;;;9.70;8.63;;;11.60;99.90;;;;;;4960908;28;20612;-56
2022/06/15 05:09:10;;;;;;;9.57;8.77;;;11.70;99.90;;;;;;4976155;28;20235;-55
2022/06/15 05:11:36;;;;;;;9.30;8.40;;;11.70;99.90;;;;;;4969311;28;20516;-56
2022/06/15 05:14:02;;;;;;;9.67;8.67;;;11.80;99.90;;;;;;4971187;28;20508;-54
2022/06/15 05:16:28;;;;;;;9.43;8.30;;;12.00;99.90;;;;;;4949888;28;20191;-56
2022/06/15 05:18:54;;;;;;;8.30;7.50;;;12.10;99.90;;;;;;4954255;28;20445;-55
2022/06/15 05:21:20;;;;;;;9.70;7.30;;;12.10;99.90;;;;;;4942972;28;20526;-52
2022/06/15 05:23:46;;;;;;;8.43;7.73;;;12.20;99.90;;;;;;4943778;28;20467;-56
2022/06/15 05:26:12;;;;;;;9.17;8.37;;;12.40;99.90;;;;;;4944065;28;20232;-57
2022/06/15 05:28:41;;;;;;;8.10;7.50;;;12.50;99.90;;;;;;4961684;28;20303;-55
2022/06/15 05:31:11;;;;;;;8.20;7.50;;;12.50;99.90;;;;;;4946653;28;20891;-55
2022/06/15 05:33:40;;;;;;;8.40;7.70;;;12.60;99.90;;;;;;4959527;28;20495;-55
2022/06/15 05:36:10;;;;;;;10.67;8.27;;;12.70;99.90;;;;;;4945611;28;20441;-54
2022/06/15 05:38:35;;;;;;;9.27;8.23;;;12.80;99.90;;;;;;4951442;28;20427;-54
2022/06/15 05:41:02;;;;;;;9.67;8.43;;;12.90;99.90;;;;;;4961823;28;20408;-53
2022/06/15 05:43:28;;;;;;;8.10;7.50;;;13.00;99.90;;;;;;4948141;28;20185;-55
2022/06/15 05:45:54;;;;;;;8.60;7.80;;;13.10;99.90;;;;;;4959529;28;20926;-56
2022/06/15 05:48:19;;;;;;;8.30;7.40;;;13.20;99.90;;;;;;4950355;28;20483;-54
2022/06/15 05:50:45;;;;;;;7.73;7.00;;;13.40;99.90;;;;;;4944249;28;20547;-55
2022/06/15 05:53:11;;;;;;;9.00;7.07;;;13.50;99.90;;;;;;4945156;28;20190;-57
2022/06/15 05:55:36;;;;;;;8.07;7.37;;;13.60;99.90;;;;;;4966909;28;20219;-56
2022/06/15 05:58:05;;;;;;;7.00;6.33;;;13.80;99.90;;;;;;4979520;28;20217;-50
2022/06/15 06:00:31;;;;;;;7.87;7.10;;;14.00;99.90;;;;;;4957544;28;20189;-58
2022/06/15 06:02:57;;;;;;;7.13;6.53;;;14.20;99.90;;;;;;4969629;28;20464;-56
2022/06/15 06:05:23;;;;;;;7.90;7.07;;;14.40;99.90;;;;;;4968581;28;20464;-53
2022/06/15 06:07:49;;;;;;;7.27;6.70;;;14.50;99.90;;;;;;4969359;28;20991;-50
2022/06/15 06:10:15;;;;;;;7.70;7.00;;;14.60;99.90;;;;;;4969038;28;20184;-53
2022/06/15 06:12:41;;;;;;;7.17;6.57;;;14.70;99.90;;;;;;4969581;28;20445;-50
2022/06/15 06:15:07;;;;;;;7.53;6.93;;;14.80;99.90;;;;;;4962760;28;20435;-53
2022/06/15 06:17:33;;;;;;;7.73;7.00;;;14.90;99.90;;;;;;4967045;28;20197;-48
2022/06/15 06:19:58;;;;;;;7.57;6.97;;;15.00;99.90;;;;;;4968835;28;21372;-52
2022/06/15 06:22:24;;;;;;;7.70;7.00;;;15.10;99.90;;;;;;4969522;28;20189;-52
2022/06/15 06:24:50;;;;;;;8.30;6.70;;;15.30;99.90;;;;;;4968721;28;20189;-51
2022/06/15 06:27:17;;;;;;;6.87;6.37;;;15.40;99.90;;;;;;4980448;28;20181;-54
2022/06/15 06:29:42;;;;;;;7.33;6.73;;;15.50;99.90;;;;;;4981868;28;20445;-49
2022/06/15 06:32:13;;;;;;;6.77;6.20;;;15.60;99.90;;;;;;4969395;28;20491;-50
2022/06/15 06:34:39;;;;;;;7.00;6.50;;;15.70;99.90;;;;;;4970330;28;20591;-53
2022/06/15 06:37:06;;;;;;;7.27;6.57;;;15.90;99.90;;;;;;4958331;28;20426;-53
2022/06/15 06:39:34;;;;;;;6.00;5.60;;;16.20;99.90;;;;;;4969635;28;20186;-50
2022/06/15 06:42:01;;;;;;;6.97;6.37;;;16.20;99.90;;;;;;4960712;28;21126;-49
2022/06/15 06:44:27;;;;;;;6.97;6.47;;;16.30;99.90;;;;;;4961327;28;20437;-52
2022/06/15 06:46:53;;;;;;;6.87;6.27;;;16.50;99.90;;;;;;4969477;28;21273;-53
2022/06/15 06:49:21;;;;;;;6.80;6.30;;;16.70;99.90;;;;;;4968285;28;20488;-51
2022/06/15 06:51:47;;;;;;;6.37;5.97;;;16.90;99.90;;;;;;4969955;28;20526;-53
2022/06/15 06:54:15;;;;;;;6.07;5.57;;;17.10;99.40;;;;;;4978146;28;20468;-53
2022/06/15 06:56:41;;;;;;;5.43;4.93;;;17.30;97.60;;;;;;4977530;28;20487;-50
2022/06/15 06:59:08;;;;;;;5.70;5.20;;;17.50;96.50;;;;;;4968137;28;20454;-49
2022/06/15 07:01:35;;;;;;;5.97;5.23;;;17.70;95.80;;;;;;4968786;28;20515;-49
2022/06/15 07:04:01;;;;;;;5.87;5.40;;;17.90;94.10;;;;;;4967672;28;20447;-50
2022/06/15 07:06:26;;;;;;;6.03;5.53;;;18.10;93.50;;;;;;4968631;28;20430;-49
2022/06/15 07:08:52;;;;;;;4.97;4.63;;;18.30;93.00;;;;;;4966266;28;20722;-49
2022/06/15 07:11:18;;;;;;;5.70;5.30;;;18.40;91.80;;;;;;4972965;28;20185;-54
2022/06/15 07:13:44;;;;;;;5.57;5.10;;;18.60;91.10;;;;;;4968650;28;20196;-49
2022/06/15 07:16:13;;;;;;;6.00;5.50;;;18.80;90.50;;;;;;4976959;28;20635;-48
2022/06/15 07:18:38;;;;;;;8.30;4.90;;;19.00;90.50;;;;;;4992163;28;20419;-51
2022/06/15 07:21:13;;;;;;;6.53;5.93;;;19.20;88.20;;;;;;4981438;28;20532;-53
2022/06/15 07:23:44;;;;;;;6.17;5.67;;;19.20;86.70;;;;;;4972943;28;20952;-50
2022/06/15 07:26:13;;;;;;;6.00;5.50;;;19.20;85.70;;;;;;4965027;28;20444;-52
2022/06/15 07:28:40;;;;;;;6.30;5.90;;;19.30;84.70;;;;;;4953268;28;20472;-48
2022/06/15 07:31:06;;;;;;;5.40;4.90;;;19.50;84.80;;;;;;4959478;28;20416;-50
2022/06/15 07:33:34;;;;;;;7.07;6.57;;;19.50;83.70;;;;;;4971152;28;20443;-55
2022/06/15 07:36:00;;;;;;;5.50;5.10;;;19.70;81.80;;;;;;4971619;28;21155;-53
2022/06/15 07:38:26;;;;;;;6.27;5.77;;;19.70;81.00;;;;;;4969620;28;20432;-55
2022/06/15 07:40:52;;;;;;;6.33;5.83;;;19.80;80.50;;;;;;4971643;28;20432;-51
2022/06/15 07:43:19;;;;;;;5.50;5.00;;;19.90;79.80;;;;;;4961279;28;20437;-53
2022/06/15 07:45:45;;;;;;;6.30;5.33;;;20.10;79.40;;;;;;4971248;28;20998;-52
2022/06/15 07:51:02;;;;;;;6.23;5.70;;;20.30;77.60;;;;;;4982674;28;20975;-48
2022/06/15 07:53:28;;;;;;;5.80;5.30;;;20.50;77.50;;;;;;4971225;28;20503;-51
2022/06/15 07:55:54;;;;;;;6.00;5.60;;;20.70;74.70;;;;;;4971657;28;20267;-52
2022/06/15 07:58:20;;;;;;;5.87;5.43;;;20.90;74.80;;;;;;4970324;28;20181;-50
2022/06/15 08:00:49;;;;;;;7.50;6.10;;;20.90;72.80;;;;;;4969898;28;20486;-53
2022/06/15 08:03:17;;;;;;;5.57;5.27;;;21.10;73.30;;;;;;4968087;28;20416;-50
2022/06/15 08:05:45;;;;;;;5.80;5.50;;;21.20;71.80;;;;;;4974455;28;20467;-53
2022/06/15 08:08:15;;;;;;;5.83;5.23;;;21.30;71.10;;;;;;4977409;28;20466;-55
2022/06/15 08:10:41;;;;;;;6.10;5.70;;;21.50;71.40;;;;;;4968983;28;21105;-51
2022/06/15 08:13:07;;;;;;;6.23;5.83;;;21.70;68.90;;;;;;4971420;28;20506;-50
2022/06/15 08:15:33;;;;;;;5.73;5.43;;;21.90;68.10;;;;;;4972976;28;20232;-51
2022/06/15 08:18:04;;;;;;;6.80;6.20;;;22.10;65.80;;;;;;4970741;28;20451;-52
2022/06/15 08:20:36;;;;;;;6.40;6.00;;;22.20;63.10;;;;;;4971345;28;20421;-52
2022/06/15 08:23:07;;;;;;;5.93;5.60;;;22.40;63.00;;;;;;4969949;28;20446;-52
2022/06/15 08:25:37;;;;;;;6.00;5.70;;;22.50;64.40;;;;;;4971322;28;20419;-51
2022/06/15 08:28:03;;;;;;;6.10;5.80;;;22.60;62.00;;;;;;4968889;28;20511;-49
2022/06/15 08:30:30;;;;;;;6.43;5.83;;;22.70;60.20;;;;;;4969942;28;20602;-48
2022/06/15 08:32:56;;;;;;;6.57;6.17;;;22.90;57.30;;;;;;4969520;28;20507;-56
2022/06/15 08:35:22;;;;;;;6.37;5.97;;;23.10;56.10;;;;;;4972703;28;20554;-50
2022/06/15 08:37:48;;;;;;;6.10;5.60;;;23.10;52.60;;;;;;4981406;28;20188;-51
2022/06/15 08:40:14;;;;;;;6.17;5.77;;;23.20;51.70;;;;;;4970936;28;20799;-48
2022/06/15 08:43:14;;;;;;;6.70;6.10;;;23.40;51.90;;;;;;4970170;28;20721;-48
2022/06/15 08:45:45;;;;;;;6.50;6.10;;;23.70;48.60;;;;;;4970727;28;20432;-51
2022/06/15 08:48:49;;;;;;;5.90;5.50;;;23.60;48.30;;;;;;4970391;28;20504;-51
2022/06/15 08:51:27;;;;;;;7.40;6.00;;;23.60;47.00;;;;;;4970397;28;20778;-52
2022/06/15 08:54:01;;;;;;;5.97;5.67;;;23.70;47.70;;;;;;4968345;28;20421;-52
2022/06/15 08:56:43;;;;;;;6.87;6.37;;;23.80;48.80;;;;;;4969588;28;20803;-48
2022/06/15 08:59:26;;;;;;;6.40;6.00;;;24.00;47.10;;;;;;4969190;28;20439;-52
2022/06/15 09:02:00;;;;;;;5.63;5.23;;;24.10;47.60;;;;;;4979492;28;20995;-52
2022/06/15 09:04:46;;;;;;;6.00;5.60;;;24.30;49.40;;;;;;4970104;28;21063;-50
2022/06/15 09:07:36;;;;;;;6.17;5.77;;;24.50;46.90;;;;;;4969117;28;20436;-53
2022/06/15 09:10:09;;;;;;;5.80;5.40;;;24.70;46.30;;;;;;4976715;28;20800;-53
2022/06/15 09:12:58;;;;;;;5.53;5.23;;;24.90;44.50;;;;;;4970429;28;20423;-51
2022/06/15 09:15:33;;;;;;;6.60;6.00;;;24.80;42.30;;;;;;4969255;28;20512;-52
2022/06/15 09:18:04;;;;;;;8.17;5.87;;;25.10;42.10;;;;;;4970135;28;20494;-52
2022/06/15 09:20:41;;;;;;;6.27;5.77;;;25.10;43.70;;;;;;4974707;28;20932;-50
2022/06/15 09:23:33;;;;;;;6.03;5.73;;;25.30;42.70;;;;;;4972715;28;20421;-52
2022/06/15 09:26:06;;;;;;;5.60;5.13;;;25.40;43.20;;;;;;4994699;28;20839;-51
2022/06/15 09:28:43;;;;;;;5.60;5.30;;;25.40;41.00;;;;;;4969824;28;20457;-53
2022/06/15 09:31:21;;;;;;;6.03;5.50;;;25.60;39.30;;;;;;4966416;28;20436;-52
2022/06/15 09:33:55;;;;;;;5.70;5.20;;;25.70;40.70;;;;;;4969680;28;20921;-50
2022/06/15 09:36:26;;;;;;;6.50;5.17;;;25.90;41.30;;;;;;4964624;28;20431;-50
2022/06/15 09:38:52;;;;;;;6.50;6.10;;;26.00;39.90;;;;;;4961666;28;20434;-53
2022/06/15 09:41:59;;;;;;;5.67;5.27;;;26.30;38.60;;;;;;4975150;28;20787;-50
2022/06/15 09:44:42;;;;;;;5.97;5.60;;;26.40;37.00;;;;;;4947812;28;20204;-51
2022/06/15 09:47:19;;;;;;;6.03;5.43;;;26.40;36.10;;;;;;4964407;28;20450;-49
2022/06/15 09:49:58;;;;;;;6.00;5.60;;;26.40;36.30;;;;;;4969381;28;20493;-54
2022/06/15 09:52:34;;;;;;;5.90;5.60;;;26.40;36.60;;;;;;4968031;28;20476;-54
2022/06/15 09:55:10;;;;;;;6.10;5.60;;;26.30;37.90;;;;;;4969870;28;21413;-52
2022/06/15 09:57:37;;;;;;;5.37;5.07;;;26.50;38.00;;;;;;4968683;28;20996;-51
2022/06/15 10:00:05;;;;;;;6.13;5.73;;;26.70;38.00;;;;;;4969591;28;20418;-54
2022/06/15 10:02:35;;;;;;;5.23;4.83;;;26.90;36.20;;;;;;4968656;28;20457;-53
2022/06/15 10:05:03;;;;;;;5.20;4.80;;;27.10;38.00;;;;;;4969365;28;20423;-50
2022/06/15 10:07:33;;;;;;;6.07;5.63;;;27.30;36.70;;;;;;4966275;28;20435;-51
2022/06/15 10:10:17;;;;;;;6.10;5.80;;;27.40;34.70;;;;;;4969038;28;20771;-51
2022/06/15 10:12:59;;;;;;;6.07;5.77;;;27.40;34.10;;;;;;4967927;28;20562;-52
2022/06/15 10:15:32;;;;;;;6.40;5.90;;;27.30;35.70;;;;;;4969128;28;20438;-55
2022/06/15 10:18:02;;;;;;;6.03;5.63;;;27.50;36.30;;;;;;4967913;28;20432;-51
2022/06/15 10:20:37;;;;;;;5.33;5.03;;;27.60;35.50;;;;;;4968712;28;20419;-53
2022/06/15 10:23:14;;;;;;;6.67;6.27;;;27.80;34.10;;;;;;4968112;28;20463;-52
2022/06/15 10:25:53;;;;;;;5.57;5.27;;;27.70;33.60;;;;;;4957093;28;21105;-54
2022/06/15 10:28:26;;;;;;;6.83;6.13;;;27.80;34.40;;;;;;4968181;28;20472;-53
2022/06/15 10:30:58;;;;;;;6.03;5.63;;;28.00;33.70;;;;;;4969356;28;20417;-52
2022/06/15 10:33:46;;;;;;;6.33;6.03;;;28.00;34.00;;;;;;4969012;28;20412;-52
2022/06/15 10:36:38;;;;;;;6.60;6.30;;;28.20;34.50;;;;;;4962618;28;20439;-51
2022/06/15 10:39:22;;;;;;;6.90;6.50;;;28.40;34.80;;;;;;4968552;28;20531;-51
2022/06/15 10:41:51;;;;;;;5.70;5.40;;;28.60;32.70;;;;;;4968111;28;20423;-53
2022/06/15 10:44:27;;;;;;;6.03;5.73;;;28.70;31.90;;;;;;4974708;28;20811;-54
2022/06/15 10:47:02;;;;;;;6.47;6.17;;;28.60;32.00;;;;;;4982390;28;20506;-53
2022/06/15 10:49:41;;;;;;;5.63;5.23;;;28.90;32.60;;;;;;4972335;28;20474;-50
2022/06/15 10:52:21;;;;;;;6.27;5.87;;;29.20;31.30;;;;;;4973175;28;20970;-56
2022/06/15 11:03:18;;;;;;;6.50;6.10;;;29.60;30.80;;;;;;4973645;28;20439;-50
2022/06/15 11:05:45;;;;;;;5.87;5.37;;;29.60;29.50;;;;;;4974518;28;20420;-53
2022/06/15 11:08:19;;;;;;;6.40;6.10;;;29.60;29.90;;;;;;4972529;28;20478;-52
2022/06/15 11:10:48;;;;;;;6.13;5.73;;;29.50;30.00;;;;;;4971602;28;20847;-55
2022/06/15 11:13:20;;;;;;;6.03;5.67;;;29.50;30.60;;;;;;4960683;28;20428;-53
2022/06/15 11:18:44;;;;;;;6.87;6.30;;;29.70;29.20;;;;;;4970147;28;20565;-52
2022/06/15 11:21:12;;;;;;;7.00;6.60;;;29.90;29.70;;;;;;4973124;28;21167;-54
2022/06/15 11:24:11;;;;;;;6.83;6.43;;;30.00;28.50;;;;;;4973428;28;20976;-52
2022/06/15 11:26:57;;;;;;;5.93;5.57;;;30.00;28.70;;;;;;4974156;28;20424;-50
2022/06/15 11:29:36;;;;;;;6.43;6.07;;;30.20;29.70;;;;;;4973300;28;20661;-54
2022/06/15 11:32:34;;;;;;;6.37;5.97;;;30.40;29.00;;;;;;4980511;28;20467;-50
2022/06/15 11:35:11;;;;;;;6.13;5.73;;;30.40;27.60;;;;;;4972818;28;20441;-54
2022/06/15 11:38:00;;;;;;;6.00;5.70;;;30.30;28.20;;;;;;4972657;28;20485;-56
2022/06/15 11:40:25;;;;;;;6.57;6.27;;;30.50;28.10;;;;;;4965060;28;20432;-54
2022/06/15 11:42:51;;;;;;;6.67;6.37;;;30.60;27.20;;;;;;4972186;28;20420;-54
2022/06/15 11:45:22;;;;;;;6.40;6.10;;;30.40;27.70;;;;;;4974036;28;20184;-52
2022/06/15 11:47:59;;;;;;;5.97;5.67;;;30.50;28.00;;;;;;4975940;28;20262;-56
2022/06/15 11:50:51;;;;;;;6.27;5.53;;;30.70;27.80;;;;;;4972378;28;20976;-56
2022/06/15 11:53:19;;;;;;;5.73;5.43;;;30.90;28.00;;;;;;4970572;28;20409;-51
2022/06/15 11:55:52;;;;;;;6.30;6.00;;;31.20;28.00;;;;;;4970846;28;20435;-54
2022/06/15 11:58:26;;;;;;;6.40;5.83;;;31.30;27.30;;;;;;4970929;28;20393;-51
2022/06/15 12:01:10;;;;;;;5.70;5.40;;;31.50;26.90;;;;;;4971032;28;20427;-52
2022/06/15 12:03:58;;;;;;;6.40;6.10;;;31.60;26.90;;;;;;4971618;28;20619;-50
2022/06/15 12:06:47;;;;;;;6.63;6.30;;;31.60;26.70;;;;;;4958193;28;20440;-52
2022/06/15 12:09:25;;;;;;;7.00;6.60;;;31.60;26.20;;;;;;4988829;28;20454;-55
2022/06/15 12:12:37;;;;;;;6.00;5.70;;;31.70;26.30;;;;;;4973891;28;20439;-52
2022/06/15 12:15:25;;;;;;;6.07;5.77;;;31.70;26.30;;;;;;4992505;28;20437;-50
2022/06/15 12:18:27;;;;;;;6.50;6.10;;;31.90;26.30;;;;;;4970677;28;20424;-51
2022/06/15 12:21:18;;;;;;;6.13;5.83;;;32.20;25.60;;;;;;5004702;28;20445;-52
2022/06/15 12:23:51;;;;;;;6.00;5.70;;;32.20;25.60;;;;;;4959641;28;20420;-53
2022/06/15 12:26:31;;;;;;;6.67;6.17;;;32.40;25.60;;;;;;4969842;28;20960;-54
2022/06/15 12:29:05;;;;;;;6.50;6.10;;;32.60;24.80;;;;;;4971044;28;20478;-54
2022/06/15 12:32:10;;;;;;;6.43;6.13;;;32.70;25.10;;;;;;4969852;28;20534;-52
2022/06/15 12:35:02;;;;;;;6.60;6.20;;;32.90;24.50;;;;;;4971306;28;20412;-54
2022/06/15 12:37:37;;;;;;;5.97;5.57;;;33.30;23.90;;;;;;4976064;28;20443;-54
2022/06/15 12:40:18;;;;;;;5.60;5.30;;;33.40;23.50;;;;;;4981720;28;20443;-55
2022/06/15 12:42:52;;;;;;;6.73;6.23;;;33.50;23.90;;;;;;4970775;28;20905;-55
2022/06/15 12:45:27;;;;;;;6.07;5.77;;;33.60;23.20;;;;;;4968866;28;20499;-53
2022/06/15 12:47:57;;;;;;;5.80;5.50;;;33.70;22.60;;;;;;4970830;28;20990;-52
2022/06/15 12:50:34;;;;;;;6.03;5.53;;;33.50;23.10;;;;;;4970418;28;20959;-55
2022/06/15 12:53:23;;;;;;;5.70;5.40;;;33.70;22.30;;;;;;4969728;28;20950;-52
2022/06/15 12:56:13;;;;;;;7.40;6.70;;;34.10;22.50;;;;;;4958416;28;20442;-53
2022/06/15 12:59:00;;;;;;;6.07;5.70;;;34.40;21.50;;;;;;4970537;28;20416;-54
2022/06/15 13:01:35;;;;;;;6.67;6.27;;;34.80;21.10;;;;;;4971174;28;20440;-53
2022/06/15 13:04:22;;;;;;;6.10;5.80;;;35.60;20.80;;;;;;4970498;28;20510;-53
2022/06/15 13:07:18;;;;;;;6.13;5.83;;;36.20;20.00;;;;;;4967280;28;20428;-50
2022/06/15 13:10:06;;;;;;;6.30;6.00;;;36.90;19.00;;;;;;4960588;28;20460;-54
2022/06/15 13:13:12;;;;;;;5.40;5.07;;;37.60;18.40;;;;;;4962061;28;20935;-52
2022/06/15 13:15:49;;;;;;;6.47;5.93;;;38.50;17.40;;;;;;4970512;28;20433;-52
2022/06/15 13:18:15;;;;;;;6.10;5.80;;;39.20;17.00;;;;;;4969091;28;20443;-57
2022/06/15 13:20:57;;;;;;;9.03;8.33;;;39.70;15.90;;;;;;4970088;28;20428;-52
2022/06/15 13:23:23;;;;;;;6.40;6.00;;;40.20;15.30;;;;;;4968845;28;20558;-52
2022/06/15 13:25:52;;;;;;;5.93;5.57;;;40.70;14.90;;;;;;4970425;28;20431;-52